Time;durP1;ratioP1;P1;durP2;ratioP2;P2;SDS_P1;SDS_P2;PMS_P1;PMS_P2;Temp;Humidity;BMP_temperature;BMP_pressure;BME280_temperature;BME280_humidity;BME280_pressure;Samples;Min_cycle;Max_cycle;Signal;HPM_P1;HPM_P2
2023/03/27 00:01:04;;;;;;;6.68;0.95;;;;;;;-146.27;100.00;84546.25;5081938;28;20030;-69
2023/03/27 00:03:30;;;;;;;3.10;0.80;;;;;;;-146.27;100.00;84534.19;5073682;28;20638;-68
2023/03/27 00:06:05;;;;;;;5.88;0.90;;;;;;;-146.27;100.00;84580.41;5072437;28;20030;-69
2023/03/27 00:08:31;;;;;;;7.30;1.00;;;;;;;-146.27;100.00;84572.38;5071776;28;20409;-70
2023/03/27 00:10:57;;;;;;;5.93;0.63;;;;;;;-146.27;100.00;84560.31;5073305;28;20016;-69
2023/03/27 00:13:23;;;;;;;8.35;1.10;;;;;;;-146.27;100.00;84586.44;5079995;28;20046;-69
2023/03/27 00:15:49;;;;;;;3.50;0.98;;;;;;;-146.27;100.00;84588.44;5083825;28;20020;-69
2023/03/27 00:18:15;;;;;;;3.03;0.98;;;;;;;-146.27;100.00;84626.63;5091242;28;20106;-69
2023/03/27 00:20:41;;;;;;;9.45;1.02;;;;;;;-146.27;100.00;84596.50;5089069;28;20058;-70
2023/03/27 00:23:06;;;;;;;4.32;0.98;;;;;;;-146.27;100.00;84598.50;5082766;28;20043;-69
2023/03/27 00:25:32;;;;;;;5.07;0.88;;;;;;;-146.27;100.00;84610.56;5081889;28;20032;-69
2023/03/27 00:27:58;;;;;;;8.80;0.90;;;;;;;-146.27;100.00;84580.41;5086761;28;20035;-69
2023/03/27 00:30:27;;;;;;;7.25;1.20;;;;;;;-146.27;100.00;84642.72;5086566;28;20020;-69
2023/03/27 00:32:57;;;;;;;7.43;1.40;;;;;;;-146.27;100.00;84622.63;5080968;28;20058;-69
2023/03/27 00:35:24;;;;;;;6.63;1.10;;;;;;;-146.27;100.00;84694.97;5078490;28;20028;-69
2023/03/27 00:37:50;;;;;;;4.63;1.10;;;;;;;-146.27;100.00;84594.47;5077419;28;20031;-69
2023/03/27 00:40:17;;;;;;;4.65;0.90;;;;;;;-146.27;100.00;84636.69;5085524;28;20032;-69
2023/03/27 00:42:49;;;;;;;7.55;1.17;;;;;;;-146.27;100.00;84662.81;5077413;28;20020;-69
2023/03/27 00:45:27;;;;;;;4.53;1.30;;;;;;;-146.27;100.00;84678.91;5081513;28;20043;-69
2023/03/27 00:47:58;;;;;;;12.48;1.50;;;;;;;-146.27;100.00;84640.69;5081157;28;20036;-69
2023/03/27 00:50:29;;;;;;;8.80;1.27;;;;;;;-146.27;100.00;84666.84;5074424;28;20025;-69
2023/03/27 00:52:59;;;;;;;12.07;1.70;;;;;;;-146.27;100.00;84705.03;5072829;28;20031;-69
2023/03/27 00:55:28;;;;;;;6.93;1.27;;;;;;;-146.27;100.00;84678.91;5086627;28;20024;-69
2023/03/27 00:57:59;;;;;;;11.60;1.00;;;;;;;-146.27;100.00;84642.72;5089772;28;20027;-69
2023/03/27 01:00:25;;;;;;;6.28;2.47;;;;;;;-146.27;100.00;84668.84;5089989;28;20024;-69
2023/03/27 01:02:50;;;;;;;8.13;1.00;;;;;;;-146.27;100.00;84666.84;5088389;28;20455;-69
2023/03/27 01:05:18;;;;;;;5.13;1.20;;;;;;;-146.27;100.00;84644.72;5091887;28;20027;-69
2023/03/27 01:07:45;;;;;;;9.85;1.67;;;;;;;-146.27;100.00;84646.72;5080512;28;20487;-70
2023/03/27 01:10:12;;;;;;;5.28;1.20;;;;;;;-146.27;100.00;84644.72;5084654;28;20490;-69
2023/03/27 01:13:18;;;;;;;8.13;1.70;;;;;;;-146.27;100.00;84630.66;5094018;28;20028;-69
2023/03/27 01:15:57;;;;;;;5.50;1.13;;;;;;;-146.27;100.00;84654.78;5079221;28;20475;-69
2023/03/27 01:18:48;;;;;;;7.03;1.42;;;;;;;-146.27;100.00;84642.72;5091584;28;20048;-69
2023/03/27 01:21:46;;;;;;;9.32;1.73;;;;;;;-146.27;100.00;84634.69;5090990;28;20383;-68
2023/03/27 01:24:42;;;;;;;10.20;1.70;;;;;;;-146.27;100.00;84636.69;5083236;28;20035;-70
2023/03/27 01:27:45;;;;;;;4.93;0.90;;;;;;;-146.27;100.00;84628.66;5089955;28;20060;-69
2023/03/27 01:30:49;;;;;;;10.88;1.33;;;;;;;-146.27;100.00;84612.56;5081531;28;20399;-70
2023/03/27 01:33:20;;;;;;;4.47;1.10;;;;;;;-146.27;100.00;84642.72;5049765;28;20044;-70
2023/03/27 01:35:48;;;;;;;5.55;1.05;;;;;;;-146.27;100.00;84622.63;5037627;28;20116;-70
2023/03/27 01:38:41;;;;;;;7.70;1.48;;;;;;;-146.27;100.00;84666.84;5068819;28;20040;-69
2023/03/27 01:41:36;;;;;;;6.45;1.17;;;;;;;-146.27;100.00;84624.63;5079621;28;20036;-70
2023/03/27 01:44:12;;;;;;;2.10;0.70;;;;;;;-146.27;100.00;84566.34;5078419;28;20036;-70
2023/03/27 01:46:50;;;;;;;2.70;0.47;;;;;;;-146.27;100.00;84570.34;5089438;28;20032;-70
2023/03/27 01:49:23;;;;;;;1.30;0.43;;;;;;;-146.27;100.00;84628.66;5078366;28;20021;-68
2023/03/27 01:51:53;;;;;;;1.60;0.70;;;;;;;-146.27;100.00;84578.41;5089353;28;20024;-69
2023/03/27 01:54:26;;;;;;;5.45;0.70;;;;;;;-146.27;100.00;84606.53;5079932;28;20063;-70
2023/03/27 01:57:00;;;;;;;0.93;0.50;;;;;;;-146.27;100.00;84580.41;5083708;28;20019;-70
2023/03/27 01:59:27;;;;;;;7.68;0.70;;;;;;;-146.27;100.00;84590.47;5085497;28;20035;-70
2023/03/27 02:02:12;;;;;;;4.82;0.90;;;;;;;-146.27;100.00;84610.56;5082541;28;20059;-70
2023/03/27 02:04:54;;;;;;;5.20;0.82;;;;;;;-146.27;100.00;84540.22;5089585;28;20062;-70
2023/03/27 02:07:30;;;;;;;3.83;0.90;;;;;;;-146.27;100.00;84598.50;5090867;28;20501;-70
2023/03/27 02:10:00;;;;;;;2.45;0.65;;;;;;;-146.27;100.00;84606.53;5092449;28;20055;-70
2023/03/27 02:12:31;;;;;;;5.05;0.70;;;;;;;-146.27;100.00;84534.19;5080639;28;20085;-70
2023/03/27 02:15:00;;;;;;;5.40;0.82;;;;;;;-146.27;100.00;84574.38;5076328;28;20035;-70
2023/03/27 02:17:28;;;;;;;2.90;0.85;;;;;;;-146.27;100.00;84588.44;5083627;28;20035;-70
2023/03/27 02:19:59;;;;;;;4.15;0.70;;;;;;;-146.27;100.00;84594.47;5093491;28;20520;-70
2023/03/27 02:22:27;;;;;;;1.85;0.50;;;;;;;-146.27;100.00;84622.63;5090646;28;20032;-70
2023/03/27 02:24:53;;;;;;;2.22;0.75;;;;;;;-146.27;100.00;84616.59;5077179;28;20042;-70
2023/03/27 02:27:18;;;;;;;0.93;0.50;;;;;;;-146.27;100.00;84626.63;5086387;28;20054;-70
2023/03/27 02:29:50;;;;;;;5.45;0.43;;;;;;;-146.27;100.00;84656.78;5078403;28;20033;-70
2023/03/27 02:32:26;;;;;;;4.75;1.42;;;;;;;-146.27;100.00;84646.72;5091026;28;20024;-70
2023/03/27 02:35:04;;;;;;;3.30;0.50;;;;;;;-146.27;100.00;84658.78;5090530;28;20508;-70
2023/03/27 02:38:12;;;;;;;5.95;0.65;;;;;;;-146.27;100.00;84684.91;5075838;28;20479;-70
2023/03/27 02:40:40;;;;;;;2.28;0.85;;;;;;;-146.27;100.00;84694.97;5060394;28;20052;-70
2023/03/27 02:43:18;;;;;;;0.82;0.70;;;;;;;-146.27;100.00;84699.00;5083103;28;20016;-70
2023/03/27 02:46:11;;;;;;;4.10;0.70;;;;;;;-146.27;100.00;84690.94;5094278;28;20035;-70
2023/03/27 02:48:44;;;;;;;2.42;0.38;;;;;;;-146.27;100.00;84717.09;5085686;28;20116;-70
2023/03/27 02:51:25;;;;;;;7.30;0.60;;;;;;;-146.27;100.00;84715.06;5093478;28;20024;-70
2023/03/27 02:54:03;;;;;;;4.07;0.60;;;;;;;-146.27;100.00;84717.09;5090955;28;20054;-70
2023/03/27 02:56:32;;;;;;;2.50;0.77;;;;;;;-146.27;100.00;84739.19;5089045;28;20030;-69
2023/03/27 02:59:18;;;;;;;4.22;0.95;;;;;;;-146.27;100.00;84692.97;5081099;28;20029;-68
2023/03/27 03:01:44;;;;;;;2.53;0.77;;;;;;;-146.27;100.00;84731.16;5084235;28;20073;-69
2023/03/27 03:04:18;;;;;;;5.25;0.73;;;;;;;-146.27;100.00;84713.06;5083893;28;20555;-68
2023/03/27 03:06:44;;;;;;;2.67;0.60;;;;;;;-146.27;100.00;84747.22;5075906;28;20024;-68
2023/03/27 03:09:13;;;;;;;5.57;0.98;;;;;;;-146.27;100.00;84703.00;5085316;28;20054;-68
2023/03/27 03:11:45;;;;;;;6.38;0.60;;;;;;;-146.27;100.00;84723.13;5087515;28;20024;-69
2023/03/27 03:14:11;;;;;;;7.30;0.90;;;;;;;-146.27;100.00;84745.22;5082905;28;20507;-69
2023/03/27 03:16:37;;;;;;;2.72;1.00;;;;;;;-146.27;100.00;84658.78;5088770;28;20016;-69
2023/03/27 03:19:02;;;;;;;3.95;0.57;;;;;;;-146.27;100.00;84713.06;5088221;28;20383;-69
2023/03/27 03:21:28;;;;;;;7.13;1.20;;;;;;;-146.27;100.00;84676.88;5078777;28;20081;-69
2023/03/27 03:23:54;;;;;;;3.95;1.13;;;;;;;-146.27;100.00;84699.00;5089758;28;20073;-69
2023/03/27 03:26:20;;;;;;;6.25;1.00;;;;;;;-146.27;100.00;84707.03;5088009;28;20111;-70
2023/03/27 03:28:46;;;;;;;5.85;0.88;;;;;;;-146.27;100.00;84709.03;5080588;28;20027;-70
2023/03/27 03:31:12;;;;;;;8.38;1.67;;;;;;;-146.27;100.00;84751.25;5090311;28;20024;-69
2023/03/27 03:33:37;;;;;;;5.88;0.95;;;;;;;-146.27;100.00;84692.97;5088074;28;20039;-70
2023/03/27 03:36:03;;;;;;;9.10;1.10;;;;;;;-146.27;100.00;84739.19;5083147;28;20468;-70
2023/03/27 03:38:30;;;;;;;3.72;0.95;;;;;;;-146.27;100.00;84727.13;5086373;28;20032;-70
2023/03/27 03:40:57;;;;;;;6.43;1.05;;;;;;;-146.27;100.00;84715.06;5086061;28;20028;-70
2023/03/27 03:43:25;;;;;;;5.82;1.27;;;;;;;-146.27;100.00;84721.09;5087592;28;20410;-70
2023/03/27 03:45:50;;;;;;;5.40;1.25;;;;;;;-146.27;100.00;84755.28;5087916;28;20027;-70
2023/03/27 03:48:16;;;;;;;7.18;1.60;;;;;;;-146.27;100.00;84705.03;5085513;28;20034;-70
2023/03/27 03:50:46;;;;;;;7.68;1.63;;;;;;;-146.27;100.00;84753.25;5076974;28;20545;-71
2023/03/27 03:53:12;;;;;;;9.20;1.35;;;;;;;-146.27;100.00;84791.44;5072000;28;20075;-70
2023/03/27 03:55:38;;;;;;;5.75;1.17;;;;;;;-146.27;100.00;84759.28;5085059;28;20089;-70
2023/03/27 03:58:03;;;;;;;9.65;1.17;;;;;;;-146.27;100.00;84799.50;5078817;28;20426;-71
2023/03/27 04:00:30;;;;;;;6.20;1.27;;;;;;;-146.27;100.00;84803.50;5090343;28;20032;-70
2023/03/27 04:02:56;;;;;;;3.05;0.90;;;;;;;-146.27;100.00;84779.41;5077171;28;20035;-68
2023/03/27 04:05:22;;;;;;;6.03;1.00;;;;;;;-146.27;100.00;84783.41;5086398;28;20480;-70
2023/03/27 04:07:48;;;;;;;7.63;1.27;;;;;;;-146.27;100.00;84793.47;5087730;28;20040;-71
2023/03/27 04:10:14;;;;;;;2.45;0.95;;;;;;;-146.27;100.00;84807.53;5086615;28;20080;-71
2023/03/27 04:12:40;;;;;;;2.42;0.70;;;;;;;-146.27;100.00;84799.50;5084363;28;20020;-70
2023/03/27 04:15:06;;;;;;;5.53;1.08;;;;;;;-146.27;100.00;84813.56;5076197;28;20136;-71
2023/03/27 04:17:32;;;;;;;5.95;1.08;;;;;;;-146.27;100.00;84827.63;5082902;28;20060;-70
2023/03/27 04:19:58;;;;;;;7.22;0.82;;;;;;;-146.27;100.00;84853.75;5082852;28;20017;-70
2023/03/27 04:22:25;;;;;;;7.00;1.08;;;;;;;-146.27;100.00;84791.44;5081637;28;20523;-70
2023/03/27 04:24:52;;;;;;;10.77;0.98;;;;;;;-146.27;100.00;84773.38;5079138;28;20020;-70
2023/03/27 04:27:18;;;;;;;8.18;1.30;;;;;;;-146.27;100.00;84787.44;5087704;28;20048;-70
2023/03/27 04:29:46;;;;;;;15.52;1.27;;;;;;;-146.27;100.00;84821.59;5082728;28;20048;-70
2023/03/27 04:32:18;;;;;;;11.23;1.50;;;;;;;-146.27;100.00;84807.53;5090900;28;20024;-70
2023/03/27 04:34:47;;;;;;;4.10;0.98;;;;;;;-146.27;100.00;84803.50;5091683;28;20118;-70
2023/03/27 04:37:13;;;;;;;6.50;1.23;;;;;;;-146.27;100.00;84805.53;5098230;28;20391;-70
2023/03/27 04:39:41;;;;;;;10.25;1.20;;;;;;;-146.27;100.00;84767.34;5082864;28;20025;-70
2023/03/27 04:42:10;;;;;;;3.80;1.52;;;;;;;-146.27;100.00;84757.28;5079046;28;20055;-70
2023/03/27 04:44:36;;;;;;;6.38;1.13;;;;;;;-146.27;100.00;84719.09;5088946;28;20024;-70
2023/03/27 04:47:02;;;;;;;3.47;1.15;;;;;;;-146.27;100.00;84763.31;5081398;28;20029;-70
2023/03/27 04:49:28;;;;;;;5.93;1.30;;;;;;;-146.27;100.00;84771.34;5080123;28;20031;-70
2023/03/27 04:51:54;;;;;;;6.22;1.20;;;;;;;-146.27;100.00;84771.34;5081510;28;20017;-70
2023/03/27 04:54:23;;;;;;;3.47;1.05;;;;;;;-146.27;100.00;84783.41;5091647;28;20031;-70
2023/03/27 04:56:49;;;;;;;12.43;1.30;;;;;;;-146.27;100.00;84779.41;5085181;28;20057;-70
2023/03/27 04:59:14;;;;;;;5.65;1.10;;;;;;;-146.27;100.00;84795.47;5083663;28;20127;-70
2023/03/27 05:01:40;;;;;;;4.97;1.23;;;;;;;-146.27;100.00;84777.38;5086323;28;20065;-70
2023/03/27 05:04:06;;;;;;;6.55;1.20;;;;;;;-146.27;100.00;84775.38;5080071;28;20016;-70
2023/03/27 05:06:32;;;;;;;8.15;1.00;;;;;;;-146.27;100.00;84801.50;5084541;28;20027;-70
2023/03/27 05:08:57;;;;;;;2.88;0.98;;;;;;;-146.27;100.00;84801.50;5094632;28;20334;-68
2023/03/27 05:11:23;;;;;;;8.93;1.55;;;;;;;-146.27;100.00;84787.44;5081480;28;20501;-74
2023/03/27 05:13:49;;;;;;;3.75;1.38;;;;;;;-146.27;100.00;84771.34;5074826;28;20041;-73
2023/03/27 05:16:16;;;;;;;3.22;1.10;;;;;;;-146.27;100.00;84801.50;5084052;28;20055;-73
2023/03/27 05:18:43;;;;;;;15.05;1.15;;;;;;;-146.27;100.00;84783.41;5101642;28;20086;-73
2023/03/27 05:21:10;;;;;;;3.20;0.95;;;;;;;-146.27;100.00;84803.50;5095269;28;20055;-73
2023/03/27 05:23:35;;;;;;;9.80;1.27;;;;;;;-146.27;100.00;84799.50;5082420;28;20439;-73
2023/03/27 05:26:01;;;;;;;2.67;0.95;;;;;;;-146.27;100.00;84819.59;5086756;28;20103;-73
2023/03/27 05:28:27;;;;;;;6.18;1.50;;;;;;;-146.27;100.00;84779.41;5079407;28;20475;-70
2023/03/27 05:30:52;;;;;;;5.13;0.95;;;;;;;-146.27;100.00;84821.59;5079200;28;20047;-68
2023/03/27 05:33:17;;;;;;;7.32;0.93;;;;;;;-146.27;100.00;84807.53;5077169;28;20067;-70
2023/03/27 05:35:46;;;;;;;6.35;1.10;;;;;;;-146.27;100.00;84833.66;5084636;28;20024;-71
2023/03/27 05:38:13;;;;;;;6.55;2.00;;;;;;;-146.27;100.00;84799.50;5082283;28;20032;-71
2023/03/27 05:40:38;;;;;;;6.65;1.20;;;;;;;-146.27;100.00;84811.56;5083400;28;20050;-70
2023/03/27 05:43:04;;;;;;;11.75;1.50;;;;;;;-146.27;100.00;84799.50;5086561;28;20047;-68
2023/03/27 05:45:31;;;;;;;10.75;2.10;;;;;;;-146.27;100.00;84793.47;5082775;28;20102;-68
2023/03/27 05:47:58;;;;;;;3.30;1.10;;;;;;;-146.27;100.00;84825.63;5085227;28;20036;-69
2023/03/27 05:50:32;;;;;;;8.07;4.10;;;;;;;-146.27;100.00;84807.53;5080559;28;20031;-69
2023/03/27 05:53:08;;;;;;;6.43;0.95;;;;;;;-146.27;100.00;84791.44;5079809;28;20103;-69
2023/03/27 05:55:34;;;;;;;7.13;1.35;;;;;;;-146.27;100.00;84829.63;5082738;28;20103;-69
2023/03/27 05:58:00;;;;;;;5.88;1.30;;;;;;;-146.27;100.00;84811.56;5082733;28;20443;-68
2023/03/27 06:00:26;;;;;;;9.25;1.25;;;;;;;-146.27;100.00;84789.44;5086561;28;20032;-69
2023/03/27 06:02:56;;;;;;;10.73;1.40;;;;;;;-146.27;100.00;84831.66;5087778;28;20286;-71
2023/03/27 06:05:23;;;;;;;7.93;1.50;;;;;;;-146.27;100.00;84843.72;5084118;28;20032;-69
2023/03/27 06:07:49;;;;;;;8.75;1.20;;;;;;;-146.27;100.00;84827.63;5086580;28;20125;-69
2023/03/27 06:10:19;;;;;;;5.82;2.17;;;;;;;-146.27;100.00;84823.63;5085084;28;20039;-69
2023/03/27 06:12:45;;;;;;;7.22;1.33;;;;;;;-146.27;100.00;84823.63;5085412;28;20024;-69
2023/03/27 06:15:11;;;;;;;14.98;1.77;;;;;;;-146.27;100.00;84793.47;5092647;28;20476;-70
2023/03/27 06:17:41;;;;;;;11.00;1.35;;;;;;;-146.27;100.00;84797.47;5083234;28;20107;-69
2023/03/27 06:20:12;;;;;;;5.22;1.48;;;;;;;-146.27;100.00;84777.38;5079718;28;20452;-70
2023/03/27 06:22:52;;;;;;;9.77;1.73;;;;;;;-146.27;100.00;84779.41;5075557;28;20020;-70
2023/03/27 06:25:19;;;;;;;6.57;1.27;;;;;;;-146.27;100.00;84811.56;5077418;28;20043;-70
2023/03/27 06:27:46;;;;;;;6.47;1.23;;;;;;;-146.27;100.00;84771.34;5083563;28;20016;-71
2023/03/27 06:30:17;;;;;;;8.85;1.45;;;;;;;-146.27;100.00;84723.13;5083657;28;20056;-70
2023/03/27 06:32:44;;;;;;;14.43;1.45;;;;;;;-146.27;100.00;84699.00;5083048;28;20029;-70
2023/03/27 06:35:13;;;;;;;7.65;1.55;;;;;;;-146.27;100.00;84688.94;5079504;28;20023;-70
2023/03/27 06:37:39;;;;;;;6.90;1.10;;;;;;;-146.27;100.00;84654.78;5085820;28;20106;-70
2023/03/27 06:40:09;;;;;;;4.65;1.20;;;;;;;-146.27;99.27;84618.59;5084643;28;20111;-70
2023/03/27 06:42:35;;;;;;;6.65;0.85;;;;;;;-146.27;95.40;84622.63;5080862;28;20024;-71
2023/03/27 06:45:04;;;;;;;8.27;0.65;;;;;;;-146.27;95.70;84594.47;5084861;28;20024;-72
2023/03/27 06:47:29;;;;;;;1.60;0.52;;;;;;;-146.27;98.12;84568.34;5081261;28;20364;-71
2023/03/27 06:49:55;;;;;;;5.07;0.80;;;;;;;-146.27;97.83;84600.50;5082282;28;20024;-72
2023/03/27 06:52:20;;;;;;;3.53;1.02;;;;;;;-146.27;98.90;84618.59;5081716;28;20020;-72
2023/03/27 06:54:46;;;;;;;7.38;0.98;;;;;;;-146.27;99.60;84602.50;5084218;28;20031;-72
2023/03/27 06:57:12;;;;;;;3.83;0.90;;;;;;;-146.27;98.91;84622.63;5082084;28;20115;-72
2023/03/27 06:59:37;;;;;;;5.05;0.80;;;;;;;-146.27;99.26;84582.41;5084432;28;20028;-72
2023/03/27 07:02:03;;;;;;;3.25;0.50;;;;;;;-146.27;98.25;84600.50;5090004;28;20032;-72
2023/03/27 07:04:28;;;;;;;6.18;1.02;;;;;;;-146.27;95.08;84556.28;5087446;28;20040;-72
2023/03/27 07:06:54;;;;;;;5.07;1.10;;;;;;;-146.27;94.62;84584.44;5088575;28;20037;-71
2023/03/27 07:09:19;;;;;;;3.92;0.73;;;;;;;-146.27;97.35;84582.41;5086609;28;20075;-72
2023/03/27 07:11:44;;;;;;;4.25;0.60;;;;;;;-146.27;99.66;84582.41;5092503;28;20044;-72
2023/03/27 07:14:10;;;;;;;2.88;0.50;;;;;;;-146.27;100.00;84600.50;5084632;28;20024;-70
2023/03/27 07:16:36;;;;;;;2.83;0.80;;;;;;;-146.27;99.54;84662.81;5082158;28;20024;-73
2023/03/27 07:19:01;;;;;;;3.00;0.57;;;;;;;-146.27;98.64;84652.75;5086137;28;20020;-71
2023/03/27 07:21:27;;;;;;;4.32;0.40;;;;;;;-146.27;100.00;84666.84;5085777;28;20036;-71
2023/03/27 07:23:52;;;;;;;5.15;0.73;;;;;;;-146.27;100.00;84666.84;5084974;28;20076;-71
2023/03/27 07:26:17;;;;;;;3.63;0.45;;;;;;;-146.27;99.72;84664.81;5092525;28;20063;-71
2023/03/27 07:28:43;;;;;;;4.75;0.80;;;;;;;-146.27;100.00;84660.81;5092111;28;20054;-71
2023/03/27 07:31:12;;;;;;;5.63;0.63;;;;;;;-146.27;100.00;84686.94;5082822;28;20475;-71
2023/03/27 07:33:38;;;;;;;9.70;1.00;;;;;;;-146.27;100.00;84626.63;5086493;28;20043;-72
2023/03/27 07:36:08;;;;;;;3.10;0.70;;;;;;;-146.27;100.00;84614.56;5083439;28;20024;-71
2023/03/27 07:38:33;;;;;;;1.90;0.38;;;;;;;-146.27;99.91;84596.50;5089279;28;20039;-72
2023/03/27 07:41:05;;;;;;;1.63;0.50;;;;;;;-146.27;98.41;84600.50;5079338;28;20377;-72
2023/03/27 07:43:33;;;;;;;7.55;0.68;;;;;;;-146.27;96.49;84574.38;5090279;28;20051;-71
2023/03/27 07:45:59;;;;;;;11.88;0.98;;;;;;;-146.27;98.76;84580.41;5082035;28;20380;-72
2023/03/27 07:48:24;;;;;;;5.45;1.10;;;;;;;-146.27;97.42;84562.31;5089635;28;20024;-71
2023/03/27 07:50:49;;;;;;;3.53;0.68;;;;;;;-146.27;97.96;84550.25;5086063;28;20027;-72
2023/03/27 07:53:18;;;;;;;11.55;1.70;;;;;;;-146.27;97.95;84554.28;5091790;28;20102;-71
2023/03/27 07:55:45;;;;;;;9.10;1.38;;;;;;;-146.27;99.27;84502.03;5090545;28;20024;-71
2023/03/27 07:58:10;;;;;;;7.35;0.82;;;;;;;-146.27;99.26;84498.00;5084962;28;20028;-71
2023/03/27 08:00:37;;;;;;;5.50;1.08;;;;;;;-146.27;95.06;84502.03;5082180;28;20035;-71
2023/03/27 08:03:05;;;;;;;10.38;1.05;;;;;;;-146.27;93.36;84475.91;5081173;28;20023;-71
2023/03/27 08:05:30;;;;;;;5.43;0.90;;;;;;;-146.27;93.35;84477.91;5088354;28;20400;-71
2023/03/27 08:07:56;;;;;;;12.55;1.00;;;;;;;-146.27;92.34;84469.88;5079876;28;20140;-72
2023/03/27 08:10:21;;;;;;;11.55;1.25;;;;;;;-146.27;92.39;84445.75;5090487;28;20054;-72
2023/03/27 08:12:46;;;;;;;8.82;1.33;;;;;;;-146.27;92.37;84463.84;5075712;28;20024;-72
2023/03/27 08:15:12;;;;;;;1.60;0.70;;;;;;;-146.27;90.28;84457.81;5086825;28;20107;-70
2023/03/27 08:17:37;;;;;;;1.63;0.50;;;;;;;-146.27;89.94;84461.81;5087278;28;20044;-71
2023/03/27 08:20:07;;;;;;;7.85;0.70;;;;;;;-146.27;87.38;84498.00;5093792;28;20480;-70
2023/03/27 08:22:33;;;;;;;5.57;0.70;;;;;;;-146.27;86.16;84485.94;5104528;28;20038;-71
2023/03/27 08:24:59;;;;;;;2.72;0.60;;;;;;;-146.27;85.65;84504.03;5114830;28;20031;-70
2023/03/27 08:27:24;;;;;;;8.77;1.20;;;;;;;-146.27;87.84;84526.13;5089263;28;20028;-71
2023/03/27 08:29:50;;;;;;;5.82;0.85;;;;;;;-146.27;87.91;84504.03;5085641;28;20097;-71
2023/03/27 08:32:15;;;;;;;7.38;1.05;;;;;;;-146.27;90.42;84461.81;5085711;28;20028;-71
2023/03/27 08:34:41;;;;;;;11.15;1.00;;;;;;;-146.27;89.60;84429.66;5091337;28;20031;-71
2023/03/27 08:37:07;;;;;;;10.23;0.95;;;;;;;-146.27;88.70;84397.50;5083240;28;20359;-71
2023/03/27 08:39:33;;;;;;;4.18;0.90;;;;;;;-146.27;90.52;84387.47;5088330;28;20068;-71
2023/03/27 08:42:03;;;;;;;5.75;0.80;;;;;;;-146.27;90.94;84405.56;5087175;28;20435;-72
2023/03/27 08:44:31;;;;;;;6.35;0.98;;;;;;;-146.27;91.90;84409.56;5089531;28;20423;-69
2023/03/27 08:46:59;;;;;;;8.77;1.23;;;;;;;-146.27;88.87;84427.66;5090390;28;20399;-71
2023/03/27 08:49:30;;;;;;;13.52;1.08;;;;;;;-146.27;89.16;84473.88;5083725;28;20380;-72
2023/03/27 08:52:00;;;;;;;10.40;1.10;;;;;;;-146.27;86.32;84459.81;5090214;28;20039;-72
2023/03/27 08:54:31;;;;;;;4.68;1.20;;;;;;;-146.27;87.22;84514.09;5079782;28;20028;-71
2023/03/27 08:56:57;;;;;;;3.33;1.08;;;;;;;-146.27;86.96;84483.94;5095277;28;20028;-71
2023/03/27 08:59:30;;;;;;;5.35;0.90;;;;;;;-146.27;87.75;84459.81;5080225;28;20476;-72
2023/03/27 09:02:34;;;;;;;10.77;1.10;;;;;;;-146.27;91.45;84463.84;5091532;28;20123;-72
2023/03/27 09:05:13;;;;;;;6.10;1.02;;;;;;;-146.27;92.41;84461.81;5087125;28;20040;-72
2023/03/27 09:07:59;;;;;;;8.65;1.10;;;;;;;-146.27;94.49;84449.75;5089073;28;20076;-72
2023/03/27 09:10:42;;;;;;;2.42;0.57;;;;;;;-146.27;96.17;84425.66;5072743;28;20039;-72
2023/03/27 09:13:17;;;;;;;4.63;0.50;;;;;;;-146.27;98.24;84453.78;5095290;28;20020;-72
2023/03/27 09:15:56;;;;;;;6.95;0.98;;;;;;;-146.27;100.00;84493.97;5077123;28;20063;-72
2023/03/27 09:18:29;;;;;;;6.28;0.65;;;;;;;-146.27;100.00;84493.97;5091382;28;20028;-72
2023/03/27 09:21:10;;;;;;;6.35;0.82;;;;;;;-146.27;100.00;84546.25;5090999;28;20049;-69
2023/03/27 09:23:41;;;;;;;4.90;0.68;;;;;;;-146.27;100.00;84596.50;5089987;28;20055;-73
2023/03/27 09:26:13;;;;;;;7.03;1.05;;;;;;;-146.27;100.00;84614.56;5094206;28;20029;-72
2023/03/27 09:29:07;;;;;;;9.35;1.23;;;;;;;-146.27;100.00;84664.81;5085979;28;20032;-72
2023/03/27 09:31:34;;;;;;;4.43;0.80;;;;;;;-146.27;100.00;84610.56;5092919;28;20032;-72
2023/03/27 09:34:06;;;;;;;6.80;1.10;;;;;;;-146.27;100.00;84610.56;5093519;28;20468;-72
2023/03/27 09:36:34;;;;;;;7.07;0.90;;;;;;;-146.27;100.00;84602.50;5088279;28;20039;-73
2023/03/27 09:39:11;;;;;;;12.98;1.20;;;;;;;-146.27;100.00;84526.13;5091084;28;20032;-72
2023/03/27 09:41:42;;;;;;;8.23;1.25;;;;;;;-146.27;100.00;84479.91;5074426;28;20376;-73
2023/03/27 09:44:11;;;;;;;8.35;0.98;;;;;;;-146.27;100.00;84403.53;5090472;28;20032;-70
2023/03/27 09:46:42;;;;;;;4.90;0.73;;;;;;;-146.27;100.00;84397.50;5074120;28;20033;-72
2023/03/27 09:49:16;;;;;;;3.35;0.68;;;;;;;-146.27;100.00;84327.16;5081159;28;20051;-72
2023/03/27 09:51:50;;;;;;;0.75;0.50;;;;;;;-146.27;100.00;84295.00;5090304;28;20961;-71
2023/03/27 09:54:19;;;;;;;6.20;1.08;;;;;;;-146.27;100.00;84196.53;5088561;28;20020;-77
2023/03/27 09:57:05;;;;;;;4.03;0.88;;;;;;;-146.27;92.87;84136.25;5094124;28;20024;-76
2023/03/27 09:59:36;;;;;;;3.25;0.77;;;;;;;-146.27;87.81;84118.16;5087524;28;20040;-75
2023/03/27 10:02:23;;;;;;;10.70;1.20;;;;;;;-146.27;86.20;84100.06;5086619;28;20097;-72
2023/03/27 10:05:10;;;;;;;3.88;0.68;;;;;;;-146.27;88.70;84065.91;5099729;27;20020;-75
2023/03/27 10:07:38;;;;;;;5.68;0.90;;;;;;;-146.27;75.88;83995.56;5093792;28;20105;-76
2023/03/27 10:10:18;;;;;;;3.67;0.98;;;;;;;-146.27;73.53;83985.53;5081476;28;20020;-72
2023/03/27 10:12:52;;;;;;;3.83;0.60;;;;;;;-146.27;72.15;83983.50;5075497;28;20016;-72
2023/03/27 10:15:23;;;;;;;5.75;0.82;;;;;;;-146.27;65.24;83953.38;5090238;28;20434;-68
2023/03/27 10:17:49;;;;;;;12.50;1.60;;;;;;;-146.27;71.21;83907.16;5091164;28;20024;-73
2023/03/27 10:20:17;;;;;;;5.25;0.70;;;;;;;-146.27;71.33;83931.25;5082780;28;20039;-71
2023/03/27 10:22:51;;;;;;;4.45;0.90;;;;;;;-146.27;77.76;83959.41;5092429;28;20336;-72
2023/03/27 10:25:21;;;;;;;;;;;;;;;-146.27;74.30;84011.66;5091270;28;20117;-71
2023/03/27 10:27:46;;;;;;;4.07;0.68;;;;;;;-146.27;71.88;83943.31;5091265;28;19912;-67
2023/03/27 10:30:33;;;;;;;3.70;0.70;;;;;;;-146.27;65.77;83973.47;5092305;28;20038;-68
2023/03/27 10:32:58;;;;;;;6.80;1.30;;;;;;;-146.27;59.48;83943.31;5093505;28;20044;-68
2023/03/27 10:35:26;;;;;;;3.50;0.55;;;;;;;-146.27;57.40;83969.44;5085718;28;20100;-68
2023/03/27 10:37:53;;;;;;;3.40;0.68;;;;;;;-146.27;58.58;83875.00;5076221;28;20032;-68
2023/03/27 10:40:23;;;;;;;3.60;0.52;;;;;;;-146.27;57.82;83858.91;5075168;28;20491;-68
2023/03/27 10:42:49;;;;;;;4.72;0.90;;;;;;;-146.27;54.88;83800.63;5077205;28;20464;-67
2023/03/27 10:45:17;;;;;;;7.72;0.80;;;;;;;-146.27;51.14;83794.63;5078544;28;20027;-68
2023/03/27 10:47:46;;;;;;;9.82;0.80;;;;;;;-146.27;54.81;83750.41;5073662;28;20060;-68
2023/03/27 10:50:18;;;;;;;2.75;0.52;;;;;;;-146.27;57.27;83704.19;5078935;28;20085;-68
2023/03/27 10:53:01;;;;;;;5.00;0.80;;;;;;;-146.27;50.90;83653.94;5080341;28;20031;-69
2023/03/27 10:55:32;;;;;;;6.88;0.60;;;;;;;-146.27;51.52;83621.81;5084956;28;20051;-68
2023/03/27 10:58:05;;;;;;;5.47;0.60;;;;;;;-146.27;51.21;83609.75;5092220;28;20027;-68
2023/03/27 11:00:38;;;;;;;4.28;0.82;;;;;;;-146.27;53.26;83569.56;5089425;28;20108;-68
2023/03/27 11:03:17;;;;;;;4.32;0.82;;;;;;;-146.27;57.59;83609.75;5092925;28;20028;-68
2023/03/27 11:05:47;;;;;;;7.88;1.08;;;;;;;-146.27;55.03;83613.75;5091551;28;20046;-68
2023/03/27 11:08:22;;;;;;;5.63;1.00;;;;;;;-146.27;60.55;83605.72;5088695;28;20529;-68
2023/03/27 11:10:49;;;;;;;4.88;1.25;;;;;;;-146.27;50.67;83561.53;5092035;28;20115;-68
2023/03/27 11:13:22;;;;;;;6.03;0.82;;;;;;;-146.27;49.67;83561.53;5082996;28;20035;-68
2023/03/27 11:16:24;;;;;;;5.30;0.77;;;;;;;-146.27;47.50;83473.09;5086752;28;20379;-68
2023/03/27 11:19:08;;;;;;;3.10;0.80;;;;;;;-146.27;47.43;83533.38;5083053;28;20047;-70
2023/03/27 11:21:48;;;;;;;3.45;0.63;;;;;;;-146.27;49.75;83525.34;5084457;28;20111;-72
2023/03/27 11:24:37;;;;;;;3.03;0.70;;;;;;;-146.27;49.75;83653.94;5079609;28;20054;-72
2023/03/27 11:27:11;;;;;;;6.13;0.90;;;;;;;-146.27;54.27;83573.56;5085411;28;20028;-73